createdAt,value
2018-11-23T00:01:59.250Z,95431.00
2018-11-23T00:04:31.434Z,95431.00
2018-11-23T00:07:03.443Z,95431.00
2018-11-23T00:09:35.413Z,95432.00
2018-11-23T00:12:07.687Z,95432.00
2018-11-23T00:14:39.698Z,95433.00
2018-11-23T00:17:11.470Z,95432.00
2018-11-23T00:19:43.151Z,95437.00
2018-11-23T00:22:15.815Z,95440.00
2018-11-23T00:24:48.007Z,95447.00
2018-11-23T00:27:20.249Z,95447.00
2018-11-23T00:29:53.283Z,95450.00
2018-11-23T00:32:25.155Z,95448.00
2018-11-23T00:34:56.791Z,95454.00
2018-11-23T00:37:28.653Z,95456.00
2018-11-23T00:40:00.610Z,95466.00
2018-11-23T00:42:32.663Z,95468.00
2018-11-23T00:45:05.148Z,95471.00
2018-11-23T00:47:36.933Z,95469.00
2018-11-23T00:50:12.263Z,95471.00
2018-11-23T00:52:44.818Z,95466.00
2018-11-23T00:55:18.375Z,95467.00
2018-11-23T00:57:50.715Z,95466.00
2018-11-23T01:00:27.534Z,95470.00
2018-11-23T01:03:00.847Z,95472.00
2018-11-23T01:05:32.933Z,95477.00
2018-11-23T01:08:05.022Z,95478.00
2018-11-23T01:10:36.840Z,95473.00
2018-11-23T01:13:08.737Z,95474.00
2018-11-23T01:15:40.359Z,95476.00
2018-11-23T01:18:12.816Z,95474.00
2018-11-23T01:20:44.521Z,95477.00
2018-11-23T01:23:17.239Z,95475.00
2018-11-23T01:25:49.688Z,95469.00
2018-11-23T01:28:21.861Z,95467.00
2018-11-23T01:30:54.144Z,95466.00
2018-11-23T01:33:25.935Z,95472.00
2018-11-23T01:35:57.831Z,95466.00
2018-11-23T01:38:29.568Z,95467.00
2018-11-23T01:41:01.227Z,95466.00
2018-11-23T01:43:32.886Z,95468.00
2018-11-23T01:46:05.024Z,95471.00
2018-11-23T01:48:36.857Z,95471.00
2018-11-23T01:51:08.666Z,95470.00
2018-11-23T01:53:41.236Z,95468.00
2018-11-23T01:56:13.630Z,95474.00
2018-11-23T01:58:45.560Z,95475.00
2018-11-23T02:01:17.283Z,95472.00
2018-11-23T02:03:49.011Z,95469.00
2018-11-23T02:06:20.811Z,95476.00
2018-11-23T02:08:52.877Z,95474.00
2018-11-23T02:11:25.195Z,95475.00
2018-11-23T02:13:57.271Z,95469.00
2018-11-23T02:16:29.401Z,95470.00
2018-11-23T02:19:01.211Z,95473.00
2018-11-23T02:21:33.272Z,95479.00
2018-11-23T02:24:05.036Z,95473.00
2018-11-23T02:26:36.990Z,95481.00
2018-11-23T02:29:09.065Z,95478.00
2018-11-23T02:31:41.885Z,95468.00
2018-11-23T02:34:14.074Z,95476.00
2018-11-23T02:36:47.997Z,95481.00
2018-11-23T02:39:19.928Z,95481.00
2018-11-23T02:41:52.043Z,95487.00
2018-11-23T02:44:23.974Z,95487.00
2018-11-23T02:46:55.719Z,95488.00
2018-11-23T02:49:29.063Z,95492.00
2018-11-23T02:52:01.488Z,95492.00
2018-11-23T02:54:33.451Z,95491.00
2018-11-23T02:57:05.632Z,95496.00
2018-11-23T02:59:38.656Z,95501.00
2018-11-23T03:02:11.232Z,95499.00
2018-11-23T03:04:43.446Z,95498.00
2018-11-23T03:07:16.260Z,95506.00
2018-11-23T03:09:48.275Z,95502.00
2018-11-23T03:12:20.127Z,95500.00
2018-11-23T03:14:51.915Z,95506.00
2018-11-23T03:17:23.691Z,95499.00
2018-11-23T03:19:55.480Z,95506.00
2018-11-23T03:22:28.131Z,95511.00
2018-11-23T03:25:00.425Z,95512.00
2018-11-23T03:27:32.401Z,95510.00
2018-11-23T03:30:04.208Z,95509.00
2018-11-23T03:32:36.892Z,95510.00
2018-11-23T03:35:09.187Z,95510.00
2018-11-23T03:37:41.121Z,95512.00
2018-11-23T03:40:14.079Z,95507.00
2018-11-23T03:42:45.958Z,95508.00
2018-11-23T03:45:18.318Z,95505.00
2018-11-23T03:47:50.830Z,95507.00
2018-11-23T03:50:22.995Z,95511.00
2018-11-23T03:52:54.989Z,95509.00
2018-11-23T03:55:27.005Z,95507.00
2018-11-23T03:57:58.926Z,95508.00
2018-11-23T04:00:31.130Z,95513.00
2018-11-23T04:03:04.170Z,95521.00
2018-11-23T04:05:35.981Z,95524.00
2018-11-23T04:08:08.094Z,95520.00
2018-11-23T04:10:40.203Z,95524.00
2018-11-23T04:13:12.155Z,95527.00
2018-11-23T04:15:44.657Z,95521.00
2018-11-23T04:18:16.676Z,95521.00
2018-11-23T04:21:03.709Z,95519.00
2018-11-23T04:23:36.613Z,95516.00
2018-11-23T04:26:08.847Z,95518.00
2018-11-23T04:28:41.826Z,95518.00
2018-11-23T04:31:13.778Z,95517.00
2018-11-23T04:33:45.750Z,95518.00
2018-11-23T04:36:18.162Z,95519.00
2018-11-23T04:38:50.626Z,95521.00
2018-11-23T04:41:23.552Z,95523.00
2018-11-23T04:43:55.602Z,95522.00
2018-11-23T04:46:27.375Z,95527.00
2018-11-23T04:48:59.151Z,95525.00
2018-11-23T04:51:31.752Z,95533.00
2018-11-23T04:54:03.828Z,95532.00
2018-11-23T04:56:36.195Z,95535.00
2018-11-23T04:59:08.908Z,95539.00
2018-11-23T05:01:39.938Z,95539.00
2018-11-23T05:04:11.163Z,95537.00
2018-11-23T05:06:42.328Z,95538.00
2018-11-23T05:09:13.249Z,95548.00
2018-11-23T05:11:44.167Z,95546.00
2018-11-23T05:14:15.210Z,95543.00
2018-11-23T05:16:46.259Z,95545.00
2018-11-23T05:19:17.455Z,95544.00
2018-11-23T05:21:48.470Z,95549.00
2018-11-23T05:24:19.495Z,95548.00
2018-11-23T05:26:50.419Z,95551.00
2018-11-23T05:29:21.256Z,95551.00
2018-11-23T05:31:52.242Z,95553.00
2018-11-23T05:34:23.190Z,95556.00
2018-11-23T05:36:54.135Z,95554.00
2018-11-23T05:39:25.016Z,95558.00
2018-11-23T05:41:55.955Z,95561.00
2018-11-23T05:44:26.836Z,95567.00
2018-11-23T05:46:57.730Z,95567.00
2018-11-23T05:49:28.604Z,95569.00
2018-11-23T05:51:59.433Z,95569.00
2018-11-23T05:54:30.531Z,95569.00
2018-11-23T05:57:01.609Z,95573.00
2018-11-23T05:59:32.718Z,95576.00
2018-11-23T06:02:03.766Z,95575.00
2018-11-23T06:04:34.689Z,95581.00
2018-11-23T06:07:05.782Z,95587.00
2018-11-23T06:09:36.798Z,95588.00
2018-11-23T06:12:07.773Z,95588.00
2018-11-23T06:14:38.739Z,95594.00
2018-11-23T06:17:09.650Z,95600.00
2018-11-23T06:19:40.614Z,95601.00
2018-11-23T06:22:11.530Z,95609.00
2018-11-23T06:24:42.407Z,95618.00
2018-11-23T06:27:13.287Z,95621.00
2018-11-23T06:29:44.049Z,95619.00
2018-11-23T06:32:31.501Z,95623.00
2018-11-23T06:35:02.333Z,95620.00
2018-11-23T06:37:33.230Z,95627.00
2018-11-23T06:40:04.203Z,95630.00
2018-11-23T06:42:41.961Z,95632.00
2018-11-23T06:45:06.816Z,95632.00
2018-11-23T06:47:37.731Z,95634.00
2018-11-23T06:50:13.128Z,95630.00
2018-11-23T06:52:44.152Z,95633.00
2018-11-23T06:55:15.202Z,95637.00
2018-11-23T06:57:46.177Z,95630.00
2018-11-23T07:00:17.565Z,95628.00
2018-11-23T07:02:49.224Z,95625.00
2018-11-23T07:05:20.342Z,95634.00
2018-11-23T07:07:51.555Z,95636.00
2018-11-23T07:10:22.537Z,95638.00
2018-11-23T07:12:53.689Z,95645.00
2018-11-23T07:15:24.615Z,95651.00
2018-11-23T07:17:55.538Z,95662.00
2018-11-23T07:20:26.517Z,95670.00
2018-11-23T07:22:57.422Z,95668.00
2018-11-23T07:25:28.327Z,95672.00
2018-11-23T07:27:59.223Z,95674.00
2018-11-23T07:30:30.636Z,95676.00
2018-11-23T07:33:01.627Z,95676.00
2018-11-23T07:35:32.600Z,95674.00
2018-11-23T07:38:03.514Z,95680.00
2018-11-23T07:40:51.636Z,95683.00
2018-11-23T07:43:22.504Z,95685.00
2018-11-23T07:45:53.458Z,95685.00
2018-11-23T07:48:24.336Z,95686.00
2018-11-23T07:50:55.811Z,95685.00
2018-11-23T07:53:26.596Z,95684.00
2018-11-23T07:55:57.747Z,95689.00
2018-11-23T07:58:28.635Z,95688.00
2018-11-23T08:00:59.472Z,95694.00
2018-11-23T08:03:30.519Z,95696.00
2018-11-23T08:06:01.712Z,95695.00
2018-11-23T08:08:32.690Z,95698.00
2018-11-23T08:11:07.294Z,95698.00
2018-11-23T08:13:39.034Z,95694.00
2018-11-23T08:16:09.968Z,95697.00
2018-11-23T08:18:40.923Z,95694.00
2018-11-23T08:21:11.895Z,95692.00
2018-11-23T08:23:42.832Z,95695.00
2018-11-23T08:26:13.760Z,95687.00
2018-11-23T08:28:44.697Z,95693.00
2018-11-23T08:31:15.819Z,95692.00
2018-11-23T08:33:46.849Z,95688.00
2018-11-23T08:36:17.764Z,95701.00
2018-11-23T08:38:48.635Z,95707.00
2018-11-23T08:41:19.696Z,95707.00
2018-11-23T08:43:50.618Z,95708.00
2018-11-23T08:46:21.682Z,95700.00
2018-11-23T08:48:52.932Z,95701.00
2018-11-23T08:51:23.874Z,95702.00
2018-11-23T08:53:54.752Z,95706.00
2018-11-23T08:56:25.578Z,95706.00
2018-11-23T08:58:56.545Z,95701.00
2018-11-23T09:01:27.520Z,95702.00
2018-11-23T09:03:58.535Z,95701.00
2018-11-23T09:06:29.557Z,95708.00
2018-11-23T09:09:00.439Z,95700.00
2018-11-23T09:11:31.329Z,95699.00
2018-11-23T09:14:02.164Z,95695.00
2018-11-23T09:16:33.106Z,95697.00
2018-11-23T09:19:04.296Z,95689.00
2018-11-23T09:21:35.283Z,95690.00
2018-11-23T09:24:06.410Z,95690.00
2018-11-23T09:26:37.364Z,95689.00
2018-11-23T09:29:08.351Z,95694.00
2018-11-23T09:31:39.549Z,95695.00
2018-11-23T09:34:10.534Z,95691.00
2018-11-23T09:36:42.004Z,95694.00
2018-11-23T09:39:13.016Z,95699.00
2018-11-23T09:41:44.240Z,95690.00
2018-11-23T09:44:15.147Z,95690.00
2018-11-23T09:46:46.147Z,95686.00
2018-11-23T09:49:17.021Z,95683.00
2018-11-23T09:51:47.925Z,95680.00
2018-11-23T09:54:18.975Z,95682.00
2018-11-23T09:56:49.975Z,95677.00
2018-11-23T09:59:21.154Z,95675.00
2018-11-23T10:01:51.980Z,95676.00
2018-11-23T10:04:22.894Z,95675.00
2018-11-23T10:06:53.841Z,95669.00
2018-11-23T10:09:24.778Z,95669.00
2018-11-23T10:11:55.872Z,95667.00
2018-11-23T10:14:26.890Z,95667.00
2018-11-23T10:16:57.860Z,95663.00
2018-11-23T10:19:33.896Z,95666.00
2018-11-23T10:22:04.991Z,95655.00
2018-11-23T10:24:35.977Z,95661.00
2018-11-23T10:27:06.974Z,95659.00
2018-11-23T10:29:37.945Z,95655.00
2018-11-23T10:32:08.842Z,95661.00
2018-11-23T10:34:39.927Z,95657.00
2018-11-23T10:37:10.991Z,95657.00
2018-11-23T10:39:42.044Z,95658.00
2018-11-23T10:42:12.867Z,95656.00
2018-11-23T10:44:43.833Z,95658.00
2018-11-23T10:47:14.739Z,95666.00
2018-11-23T10:49:46.471Z,95662.00
2018-11-23T10:52:17.474Z,95658.00
2018-11-23T10:54:48.327Z,95657.00
2018-11-23T10:57:19.358Z,95653.00
2018-11-23T10:59:50.129Z,95647.00
2018-11-23T11:02:26.095Z,95643.00
2018-11-23T11:05:02.073Z,95643.00
2018-11-23T11:07:33.020Z,95642.00
2018-11-23T11:10:03.979Z,95632.00
2018-11-23T11:12:35.247Z,95635.00
2018-11-23T11:15:06.747Z,95636.00
2018-11-23T11:17:37.645Z,95635.00
2018-11-23T11:20:10.321Z,95635.00
2018-11-23T11:22:41.191Z,95623.00
2018-11-23T11:25:12.316Z,95624.00
2018-11-23T11:27:43.396Z,95625.00
2018-11-23T11:30:16.854Z,95630.00
2018-11-23T11:32:48.595Z,95633.00
2018-11-23T11:35:19.409Z,95629.00
2018-11-23T11:37:50.365Z,95626.00
2018-11-23T11:40:21.338Z,95626.00
2018-11-23T11:42:52.328Z,95620.00
2018-11-23T11:45:23.191Z,95621.00
2018-11-23T11:47:54.339Z,95622.00
2018-11-23T11:50:25.248Z,95616.00
2018-11-23T11:52:56.231Z,95615.00
2018-11-23T11:55:27.066Z,95620.00
2018-11-23T11:57:58.182Z,95619.00
2018-11-23T12:00:29.203Z,95624.00
2018-11-23T12:03:00.296Z,95622.00
2018-11-23T12:05:31.167Z,95624.00
2018-11-23T12:08:01.936Z,95630.00
2018-11-23T12:10:33.020Z,95631.00
2018-11-23T12:13:03.899Z,95635.00
2018-11-23T12:15:35.031Z,95624.00
2018-11-23T12:18:06.330Z,95629.00
2018-11-23T12:20:37.358Z,95633.00
2018-11-23T12:23:08.205Z,95631.00
2018-11-23T12:25:39.418Z,95630.00
2018-11-23T12:28:10.455Z,95634.00
2018-11-23T12:30:41.665Z,95631.00
2018-11-23T12:33:12.698Z,95629.00
2018-11-23T12:35:43.612Z,95624.00
2018-11-23T12:38:14.632Z,95635.00
2018-11-23T12:40:45.724Z,95625.00
2018-11-23T12:43:16.814Z,95629.00
2018-11-23T12:45:47.788Z,95626.00
2018-11-23T12:48:18.793Z,95632.00
2018-11-23T12:50:50.686Z,95628.00
2018-11-23T12:53:20.976Z,95631.00
2018-11-23T12:55:51.907Z,95634.00
2018-11-23T12:58:22.905Z,95628.00
2018-11-23T13:00:53.899Z,95619.00
2018-11-23T13:03:24.753Z,95618.00
2018-11-23T13:05:55.652Z,95606.00
2018-11-23T13:08:26.818Z,95609.00
2018-11-23T13:10:57.721Z,95623.00
2018-11-23T13:13:28.837Z,95623.00
2018-11-23T13:15:59.825Z,95619.00
2018-11-23T13:18:30.692Z,95616.00
2018-11-23T13:21:01.598Z,95619.00
2018-11-23T13:23:32.531Z,95620.00
2018-11-23T13:26:03.600Z,95617.00
2018-11-23T13:28:34.632Z,95619.00
2018-11-23T13:31:05.548Z,95611.00
2018-11-23T13:33:36.396Z,95612.00
2018-11-23T13:36:09.051Z,95607.00
2018-11-23T13:38:40.035Z,95611.00
2018-11-23T13:41:11.063Z,95613.00
2018-11-23T13:43:41.973Z,95616.00
2018-11-23T13:46:13.077Z,95620.00
2018-11-23T13:48:44.175Z,95621.00
2018-11-23T13:51:15.173Z,95623.00
2018-11-23T13:53:46.719Z,95621.00
2018-11-23T13:56:17.641Z,95618.00
2018-11-23T13:58:48.635Z,95618.00
2018-11-23T14:01:19.803Z,95616.00
2018-11-23T14:03:50.716Z,95628.00
2018-11-23T14:06:22.003Z,95625.00
2018-11-23T14:08:53.165Z,95616.00
2018-11-23T14:11:24.310Z,95625.00
2018-11-23T14:13:55.519Z,95630.00
2018-11-23T14:16:26.588Z,95622.00
2018-11-23T14:18:57.750Z,95623.00
2018-11-23T14:21:28.925Z,95622.00
2018-11-23T14:24:00.307Z,95618.00
2018-11-23T14:26:31.373Z,95612.00
2018-11-23T14:29:02.589Z,95618.00
2018-11-23T14:31:33.884Z,95618.00
2018-11-23T14:34:05.226Z,95616.00
2018-11-23T14:36:36.252Z,95617.00
2018-11-23T14:39:10.327Z,95623.00
2018-11-23T14:41:41.508Z,95631.00
2018-11-23T14:44:12.468Z,95634.00
2018-11-23T14:46:43.499Z,95633.00
2018-11-23T14:49:14.524Z,95634.00
2018-11-23T14:51:45.636Z,95631.00
2018-11-23T14:54:16.733Z,95625.00
2018-11-23T14:56:48.078Z,95633.00
2018-11-23T14:59:19.383Z,95628.00
2018-11-23T15:01:52.154Z,95633.00
2018-11-23T15:04:21.561Z,95635.00
2018-11-23T15:06:52.504Z,95643.00
2018-11-23T15:09:23.542Z,95650.00
2018-11-23T15:11:54.550Z,95653.00
2018-11-23T15:14:25.927Z,95655.00
2018-11-23T15:16:57.099Z,95653.00
2018-11-23T15:19:28.105Z,95648.00
2018-11-23T15:21:59.482Z,95657.00
2018-11-23T15:24:30.589Z,95660.00
2018-11-23T15:27:01.722Z,95659.00
2018-11-23T15:29:33.123Z,95659.00
2018-11-23T15:32:04.449Z,95659.00
2018-11-23T15:34:35.712Z,95658.00
2018-11-23T15:37:07.318Z,95661.00
2018-11-23T15:39:38.285Z,95661.00
2018-11-23T15:42:09.426Z,95669.00
2018-11-23T15:44:40.672Z,95672.00
2018-11-23T15:47:11.940Z,95677.00
2018-11-23T15:49:43.160Z,95679.00
2018-11-23T15:52:14.258Z,95680.00
2018-11-23T15:54:45.495Z,95686.00
2018-11-23T15:57:16.533Z,95684.00
2018-11-23T15:59:47.552Z,95686.00
2018-11-23T16:02:18.737Z,95684.00
2018-11-23T16:04:49.828Z,95692.00
2018-11-23T16:07:21.616Z,95687.00
2018-11-23T16:09:52.760Z,95691.00
2018-11-23T16:12:24.267Z,95691.00
2018-11-23T16:14:55.480Z,95698.00
2018-11-23T16:17:26.902Z,95692.00
2018-11-23T16:19:58.513Z,95695.00
2018-11-23T16:22:29.704Z,95705.00
2018-11-23T16:25:00.825Z,95704.00
2018-11-23T16:27:31.877Z,95699.00
2018-11-23T16:32:31.706Z,95698.00
2018-11-23T16:35:03.800Z,95696.00
2018-11-23T16:37:36.233Z,95697.00
2018-11-23T16:40:12.853Z,95696.00
2018-11-23T16:42:45.236Z,95699.00
2018-11-23T16:45:20.420Z,95701.00
2018-11-23T16:47:53.409Z,95704.00
2018-11-23T16:50:26.142Z,95702.00
2018-11-23T16:52:58.746Z,95710.00
2018-11-23T16:55:31.382Z,95705.00
2018-11-23T16:58:08.415Z,95703.00
2018-11-23T17:00:42.420Z,95709.00
2018-11-23T17:03:17.560Z,95698.00
2018-11-23T17:05:51.630Z,95691.00
2018-11-23T17:08:24.274Z,95696.00
2018-11-23T17:10:56.656Z,95700.00
2018-11-23T17:13:29.025Z,95705.00
2018-11-23T17:16:01.529Z,95705.00
2018-11-23T17:18:34.177Z,95702.00
2018-11-23T17:21:06.331Z,95703.00
2018-11-23T17:23:39.390Z,95698.00
2018-11-23T17:26:13.433Z,95700.00
2018-11-23T17:28:45.981Z,95704.00
2018-11-23T17:31:18.309Z,95710.00
2018-11-23T17:33:50.929Z,95707.00
2018-11-23T17:36:23.271Z,95710.00
2018-11-23T17:38:55.693Z,95704.00
2018-11-23T17:41:29.263Z,95710.00
2018-11-23T17:44:01.554Z,95713.00
2018-11-23T17:46:34.409Z,95711.00
2018-11-23T17:49:07.253Z,95711.00
2018-11-23T17:51:40.156Z,95711.00
2018-11-23T17:54:12.680Z,95713.00
2018-11-23T17:56:44.935Z,95712.00
2018-11-23T17:59:17.158Z,95721.00
2018-11-23T18:01:50.187Z,95717.00
2018-11-23T18:04:22.626Z,95719.00
2018-11-23T18:06:55.048Z,95715.00
2018-11-23T18:09:27.860Z,95720.00
2018-11-23T18:12:00.030Z,95718.00
2018-11-23T18:14:32.321Z,95714.00
2018-11-23T18:17:04.869Z,95713.00
2018-11-23T18:19:37.468Z,95713.00
2018-11-23T18:22:10.464Z,95718.00
2018-11-23T18:24:42.906Z,95720.00
2018-11-23T18:27:14.967Z,95718.00
2018-11-23T18:29:47.076Z,95715.00
2018-11-23T18:32:19.588Z,95717.00
2018-11-23T18:34:52.820Z,95719.00
2018-11-23T18:37:25.574Z,95720.00
2018-11-23T18:39:58.453Z,95724.00
2018-11-23T18:42:31.006Z,95720.00
2018-11-23T18:45:03.319Z,95714.00
2018-11-23T18:47:36.435Z,95716.00
2018-11-23T18:50:11.796Z,95718.00
2018-11-23T18:52:44.491Z,95722.00
2018-11-23T18:55:18.297Z,95726.00
2018-11-23T18:57:50.454Z,95730.00
2018-11-23T19:00:23.534Z,95726.00
2018-11-23T19:02:56.142Z,95722.00
2018-11-23T19:05:30.680Z,95721.00
2018-11-23T19:08:02.833Z,95722.00
2018-11-23T19:10:35.336Z,95727.00
2018-11-23T19:13:07.799Z,95724.00
2018-11-23T19:15:40.157Z,95721.00
2018-11-23T19:18:12.491Z,95721.00
2018-11-23T19:20:45.140Z,95723.00
2018-11-23T19:23:17.363Z,95722.00
2018-11-23T19:25:50.004Z,95723.00
2018-11-23T19:28:22.378Z,95722.00
2018-11-23T19:30:55.508Z,95716.00
2018-11-23T19:33:27.912Z,95727.00
2018-11-23T19:36:00.723Z,95725.00
2018-11-23T19:38:33.394Z,95726.00
2018-11-23T19:41:05.796Z,95731.00
2018-11-23T19:43:39.232Z,95734.00
2018-11-23T19:46:11.511Z,95737.00
2018-11-23T19:48:44.370Z,95736.00
2018-11-23T19:51:17.213Z,95733.00
2018-11-23T19:53:49.382Z,95733.00
2018-11-23T19:56:21.803Z,95734.00
2018-11-23T19:58:54.736Z,95734.00
2018-11-23T20:01:27.243Z,95735.00
2018-11-23T20:04:00.184Z,95742.00
2018-11-23T20:06:32.406Z,95735.00
2018-11-23T20:09:05.251Z,95742.00
2018-11-23T20:11:38.717Z,95744.00
2018-11-23T20:14:11.846Z,95742.00
2018-11-23T20:16:44.431Z,95742.00
2018-11-23T20:19:17.211Z,95738.00
2018-11-23T20:21:49.304Z,95742.00
2018-11-23T20:24:21.759Z,95738.00
2018-11-23T20:26:54.328Z,95737.00
2018-11-23T20:29:26.813Z,95734.00
2018-11-23T20:31:59.787Z,95738.00
2018-11-23T20:34:32.515Z,95740.00
2018-11-23T20:37:04.848Z,95735.00
2018-11-23T20:39:37.187Z,95739.00
2018-11-23T20:42:09.778Z,95741.00
2018-11-23T20:44:42.411Z,95741.00
2018-11-23T20:47:15.728Z,95742.00
2018-11-23T20:49:48.631Z,95738.00
2018-11-23T20:52:22.739Z,95742.00
2018-11-23T20:54:55.153Z,95742.00
2018-11-23T20:57:28.435Z,95746.00
2018-11-23T21:00:01.788Z,95748.00
2018-11-23T21:02:34.182Z,95750.00
2018-11-23T21:05:08.183Z,95746.00
2018-11-23T21:07:41.761Z,95746.00
2018-11-23T21:10:24.479Z,95740.00
2018-11-23T21:12:58.330Z,95738.00
2018-11-23T21:15:32.608Z,95737.00
2018-11-23T21:18:08.326Z,95739.00
2018-11-23T21:20:40.886Z,95741.00
2018-11-23T21:23:13.597Z,95742.00
2018-11-23T21:25:47.193Z,95733.00
2018-11-23T21:28:19.420Z,95741.00
2018-11-23T21:30:51.504Z,95731.00
2018-11-23T21:33:24.434Z,95730.00
2018-11-23T21:35:56.569Z,95733.00
2018-11-23T21:38:28.736Z,95731.00
2018-11-23T21:41:01.199Z,95732.00
2018-11-23T21:43:33.376Z,95735.00
2018-11-23T21:46:06.394Z,95731.00
2018-11-23T21:48:39.988Z,95734.00
2018-11-23T21:51:12.467Z,95739.00
2018-11-23T21:53:45.821Z,95738.00
2018-11-23T21:56:18.694Z,95738.00
2018-11-23T21:58:51.791Z,95741.00
2018-11-23T22:01:24.103Z,95739.00
2018-11-23T22:03:56.318Z,95739.00
2018-11-23T22:06:28.303Z,95741.00
2018-11-23T22:09:00.834Z,95741.00
2018-11-23T22:11:32.971Z,95735.00
2018-11-23T22:14:05.243Z,95740.00
2018-11-23T22:16:37.879Z,95748.00
2018-11-23T22:19:10.007Z,95744.00
2018-11-23T22:21:42.140Z,95740.00
2018-11-23T22:24:14.199Z,95738.00
2018-11-23T22:26:46.267Z,95735.00
2018-11-23T22:29:18.491Z,95737.00
2018-11-23T22:31:50.480Z,95737.00
2018-11-23T22:34:22.674Z,95736.00
2018-11-23T22:36:54.584Z,95735.00
2018-11-23T22:39:26.687Z,95732.00
2018-11-23T22:41:58.665Z,95729.00
2018-11-23T22:44:30.686Z,95730.00
2018-11-23T22:47:03.081Z,95732.00
2018-11-23T22:49:35.124Z,95729.00
2018-11-23T22:52:07.085Z,95726.00
2018-11-23T22:54:39.273Z,95729.00
2018-11-23T22:57:11.799Z,95733.00
2018-11-23T22:59:43.444Z,95730.00
2018-11-23T23:02:16.508Z,95731.00
2018-11-23T23:04:48.723Z,95731.00
2018-11-23T23:07:20.936Z,95734.00
2018-11-23T23:09:52.819Z,95732.00
2018-11-23T23:12:24.762Z,95736.00
2018-11-23T23:14:56.767Z,95734.00
2018-11-23T23:17:28.621Z,95731.00
2018-11-23T23:20:00.597Z,95731.00
2018-11-23T23:22:32.900Z,95728.00
2018-11-23T23:25:06.148Z,95728.00
2018-11-23T23:27:37.948Z,95728.00
2018-11-23T23:30:14.121Z,95725.00
2018-11-23T23:32:46.433Z,95723.00
2018-11-23T23:35:19.322Z,95731.00
2018-11-23T23:37:51.311Z,95731.00
2018-11-23T23:40:23.446Z,95729.00
2018-11-23T23:42:55.391Z,95721.00
2018-11-23T23:45:27.387Z,95728.00
2018-11-23T23:47:59.443Z,95732.00
2018-11-23T23:50:31.533Z,95736.00
2018-11-23T23:53:03.447Z,95737.00
2018-11-23T23:55:35.621Z,95734.00
2018-11-23T23:58:07.774Z,95734.00
